Presidio Lely International Airport

Jump to: basic info | weather | frequencies | runways | comments

Related pages: nearby airports | nearby navaids | notams | map

Basic information (top)

Codes: KT77 T77
Location: lon 29.634100, lat -104.362000, elev 2,932 ft / 894 m msl
Status: small_airport

Weather (top)

Current conditions (rec'd 2013/06/28 17:35Z):

KT77 281735Z AUTO 00000KT 10SM CLR 33/12 A3007 RMK AO2 T03330116 TSNO

Airport forecast for General Roberto Fierro Villalobos International Airport 101nm (187km) WSW (rec'd 2014/10/20 18:15Z):

TAF COR MMCU 201809Z 2018/2118 12005KT P6SM -RA SCT005 BKN015CB OVC040 
      TEMPO 2018/2022 4SM RA 
     FM202200 12005KT 6SM HZ VC -RA BKN015CB BKN070 
      TEMPO 2022/2102 4SM RA 
     FM210600 12005KT 6SM HZ SCT010 BKN040 OVC070 
     FM211200 07005KT 4SM HZ SCT010 BKN030 BKN070

Frequencies (top)

Verify before use: may be inaccurate or out of date.

CTAF: 122.9 MHz (CTAF)

Runways (top)

17/35: 5,200 x 75 ft (1,585 x 23 m) — paved — lighted

Latest comments (top)

No comments yet for Presidio Lely International Airport

More... (top)

See also NOTAMs and nearby airports and navaids, or visit the Presidio Lely International Airport page at the main OurAirports website..